Terminal Aerodrome Forecast
Issued by NWS Upton, NY

Home | Current Version | Previous Version | Text Only | Print | Product List | Glossary On
Versions: 1 2 3 4 5 6 7 8 9 10 11 12 13 14 15 16 17 18 19 20 21 22 23 24 25 26
000
FTUS41 KOKX 041431 AAB
TAFLGA
TAF AMD
KLGA 041431Z 0415/0512 05013G19KT P6SM BKN020 BKN060
     FM041700 06015G22KT P6SM SCT025 BKN050
     FM042100 09015G21KT P6SM BKN100
     FM050200 06009KT P6SM SCT250=

USA.gov is the U.S. government's official web portal to all federal, state and local government web resources and services.